Latest Weather Observations for Edinburgh

IDS60901

Issued at 6:31 am CST Sunday 28 May 2017 (issued every 10 minutes, with the page automatically refreshed every 10 minutes)

About weather observations | Map of Adelaide area stations | Latest observations for Adelaide area | Other Formats
Station Details ID: 023083 Name: EDINBURGH RAAF Lat: -34.71 Lon: 138.62 Height: 16.54 m
Data from the previous 72 hours. | See also: Recent months at Edinburgh
Date/Time
CST
Temp
°C
App
Temp
°C
Dew
Point
°C
Rel
Hum
%
Delta-T
°C
Wind Press
QNH
hPa
Press
MSL
hPa
Rain since
9am
mm
Dir  Spd
km/h
Gust
km/h
Spd
kts
Gust
kts
28/06:30am 11.5 6.7 7.4 76 2.0 W 22 28 12 15 1013.9 1013.8 -
28/06:00am 11.1 6.9 7.4 78 1.8 W 19 24 10 13 1014.0 1013.9 5.2
28/05:30am 10.9 7.9 7.6 80 1.6 WSW 13 22 7 12 1014.0 1013.9 5.2
28/05:00am 11.7 6.6 7.8 77 1.9 W 24 32 13 17 1013.8 1013.7 5.2
28/04:30am 11.5 6.4 7.6 77 1.9 WSW 24 32 13 17 1013.6 1013.5 5.2
28/04:00am 11.7 7.1 8.0 78 1.8 WSW 22 32 12 17 1013.7 1013.6 5.2
28/03:30am 11.8 6.2 7.3 74 2.2 WSW 26 32 14 17 1013.5 1013.4 5.2
28/03:00am 12.1 6.1 7.0 71 2.4 WSW 28 37 15 20 1013.4 1013.3 5.2
28/02:30am 12.2 6.2 6.9 70 2.5 WSW 28 39 15 21 1013.5 1013.4 5.2
28/02:00am 11.6 6.4 7.3 75 2.1 WSW 24 28 13 15 1013.7 1013.6 5.2
28/01:30am 11.7 7.4 7.8 77 1.9 SW 20 26 11 14 1013.9 1013.8 5.2
28/01:00am 12.1 5.2 6.4 68 2.7 WSW 32 39 17 21 1014.0 1013.9 5.2
28/12:30am 12.3 5.5 6.8 69 2.6 W 32 43 17 23 1014.1 1014.0 5.2
28/12:00am 12.4 8.4 9.1 80 1.7 W 20 28 11 15 1014.1 1014.0 5.2
 
Date/Time
CST
Temp
°C
App
Temp
°C
Dew
Point
°C
Rel
Hum
%
Delta-T
°C
Wind Press
QNH
hPa
Press
MSL
hPa
Rain since
9am
mm
Dir  Spd
km/h
Gust
km/h
Spd
kts
Gust
kts
27/11:30pm 12.5 7.3 8.8 78 1.8 W 26 33 14 18 1014.1 1014.0 5.2
27/11:00pm 12.5 7.4 9.1 80 1.7 WSW 26 33 14 18 1013.9 1013.8 5.2
27/10:30pm 13.1 7.7 9.5 79 1.8 WSW 28 33 15 18 1013.8 1013.7 5.2
27/10:00pm 12.7 7.2 9.2 79 1.8 WSW 28 33 15 18 1013.7 1013.6 5.2
27/09:30pm 13.1 9.0 10.1 82 1.5 W 22 37 12 20 1013.6 1013.5 5.2
27/09:00pm 13.0 9.3 10.2 83 1.4 WSW 20 28 11 15 1013.4 1013.3 5.2
27/08:30pm 13.6 10.2 11.1 85 1.3 WSW 20 30 11 16 1013.0 1012.9 5.2
27/08:00pm 13.5 8.6 11.4 87 1.1 WSW 28 37 15 20 1012.8 1012.7 5.2
27/07:49pm 13.3 8.4 11.4 88 1.0 WSW 28 35 15 19 1012.6 1012.5 5.2
27/07:39pm 13.4 8.1 11.3 87 1.1 W 30 44 16 24 1012.4 1012.3 5.2
27/07:30pm 13.6 10.8 11.3 86 1.2 NW 17 39 9 21 1012.4 1012.3 4.8
27/07:00pm 13.2 11.9 11.1 87 1.1 W 9 11 5 6 1012.4 1012.3 4.6
27/06:30pm 13.3 10.4 11.0 86 1.2 W 17 24 9 13 1012.2 1012.1 4.6
27/06:00pm 13.7 7.7 10.9 83 1.5 WSW 33 46 18 25 1012.1 1012.0 4.4
27/05:44pm 14.9 9.7 11.7 81 1.7 WSW 30 48 16 26 1011.6 1011.5 4.4
27/05:30pm 15.0 9.9 12.0 82 1.6 WSW 30 39 16 21 1011.4 1011.3 4.4
27/05:00pm 15.5 11.0 12.6 83 1.6 W 28 39 15 21 1011.1 1011.0 4.4
27/04:53pm 15.8 11.7 12.7 82 1.7 W 26 39 14 21 1011.1 1011.0 4.4
27/04:30pm 15.4 13.7 12.3 82 1.7 WNW 13 17 7 9 1010.8 1010.7 4.4
27/04:00pm 15.1 12.3 11.3 78 2.0 NW 17 22 9 12 1010.9 1010.8 4.4
27/03:56pm 14.9 12.0 11.1 78 2.0 NW 17 24 9 13 1010.9 1010.8 4.4
27/03:53pm 15.0 11.8 11.2 78 2.0 WNW 19 24 10 13 1010.8 1010.7 4.4
27/03:38pm 14.3 7.2 9.5 73 2.5 W 37 65 20 35 1011.0 1010.9 3.2
27/03:36pm 14.8 8.0 9.4 70 2.8 WNW 35 65 19 35 1011.1 1011.0 2.6
27/03:34pm 16.9 11.0 10.3 65 3.5 WNW 32 65 17 35 1010.9 1010.8 0.6
27/03:33pm 17.9 12.7 10.3 61 4.1 WNW 28 46 15 25 1010.7 1010.6 0.2
27/03:30pm 19.0 13.4 8.9 52 5.3 WNW 28 35 15 19 1010.4 1010.3 0.0
27/03:00pm 20.3 14.5 8.0 45 6.4 NW 28 37 15 20 1010.7 1010.6 0.0
27/02:30pm 20.3 14.2 8.3 46 6.3 NW 30 41 16 22 1011.1 1011.0 0.0
27/02:00pm 20.4 14.0 7.1 42 6.8 NW 30 43 16 23 1011.2 1011.1 0.0
27/01:30pm 20.2 13.3 7.2 43 6.6 WNW 33 43 18 23 1011.5 1011.4 0.0
27/01:00pm 20.3 13.4 7.3 43 6.6 NW 33 41 18 22 1011.7 1011.6 0.0
27/12:30pm 20.0 13.1 7.4 44 6.4 NW 33 43 18 23 1012.2 1012.1 0.0
27/12:00pm 20.2 12.6 7.6 44 6.5 NW 37 50 20 27 1012.6 1012.5 0.0
27/11:30am 20.2 13.4 7.6 44 6.5 NW 33 44 18 24 1013.1 1013.0 0.0
27/11:00am 19.5 12.9 8.5 49 5.7 NNW 33 41 18 22 1013.7 1013.6 0.0
27/10:30am 17.8 11.2 7.8 52 5.1 NNW 32 43 17 23 1014.1 1014.0 0.0
27/10:00am 16.5 10.8 8.5 59 4.1 N 28 41 15 22 1014.4 1014.3 0.0
27/09:55am 16.2 10.5 8.2 59 4.1 N 28 41 15 22 1014.5 1014.4 0.0
27/09:30am 15.3 11.9 9.2 67 3.1 NNE 17 22 9 12 1014.8 1014.8 0.0
27/09:00am 13.8 10.7 9.0 73 2.4 NNE 15 20 8 11 1015.2 1015.2 0.2
27/08:30am 13.2 9.1 8.7 74 2.3 NNE 20 28 11 15 1015.2 1015.2 0.2
27/08:00am 13.2 9.6 8.3 72 2.4 NNE 17 22 9 12 1015.3 1015.3 0.0
27/07:30am 12.4 8.6 7.7 73 2.3 NE 17 19 9 10 1015.1 1015.1 0.0
27/07:00am 12.2 9.4 6.9 70 2.5 NNE 11 13 6 7 1015.1 1015.1 0.0
27/06:30am 12.8 9.2 6.8 67 2.9 NE 15 19 8 10 1014.6 1014.5 0.0
27/06:00am 12.2 7.8 6.5 68 2.7 NE 19 22 10 12 1014.4 1014.3 0.0
27/05:30am 12.6 8.2 6.6 67 2.9 NE 19 22 10 12 1014.4 1014.3 0.0
27/05:00am 12.2 8.2 6.7 69 2.6 NE 17 20 9 11 1014.5 1014.4 0.0
27/04:30am 12.2 8.2 6.5 68 2.7 NE 17 20 9 11 1014.8 1014.8 0.0
27/04:00am 12.3 7.9 6.4 67 2.8 NE 19 20 10 11 1015.0 1015.0 0.0
27/03:30am 11.8 7.3 6.3 69 2.6 NE 19 22 10 12 1015.4 1015.4 0.0
27/03:00am 11.4 7.3 6.1 70 2.5 NE 17 20 9 11 1015.6 1015.6 0.0
27/02:30am 11.4 7.6 5.9 69 2.6 NE 15 19 8 10 1015.8 1015.8 0.0
27/02:00am 12.4 7.9 6.0 65 3.0 NE 19 22 10 12 1015.7 1015.7 0.0
27/01:30am 12.3 7.8 6.1 66 2.9 NE 19 22 10 12 1016.0 1016.0 0.0
27/01:00am 12.3 7.8 5.9 65 3.0 NE 19 22 10 12 1016.4 1016.4 0.0
27/12:30am 12.6 7.9 6.0 64 3.1 NE 20 24 11 13 1016.6 1016.6 0.0
27/12:00am 12.9 8.3 6.3 64 3.1 NE 20 24 11 13 1016.8 1016.8 0.0
 
Date/Time
CST
Temp
°C
App
Temp
°C
Dew
Point
°C
Rel
Hum
%
Delta-T
°C
Wind Press
QNH
hPa
Press
MSL
hPa
Rain since
9am
mm
Dir  Spd
km/h
Gust
km/h
Spd
kts
Gust
kts
26/11:30pm 12.9 8.4 6.3 64 3.1 NE 19 22 10 12 1017.0 1017.0 0.0
26/11:00pm 12.8 8.4 6.4 65 3.0 NE 19 22 10 12 1017.1 1017.1 0.0
26/10:30pm 12.1 8.5 6.6 69 2.6 NE 15 19 8 10 1017.4 1017.4 0.0
26/10:00pm 10.9 7.9 5.9 71 2.3 NE 11 13 6 7 1017.6 1017.6 0.0
26/09:30pm 11.6 8.6 5.9 68 2.7 ENE 11 13 6 7 1017.6 1017.6 0.0
26/09:00pm 11.5 8.1 6.0 69 2.6 NE 13 13 7 7 1017.6 1017.6 0.0
26/08:30pm 12.6 9.3 6.2 65 3.0 NE 13 15 7 8 1017.6 1017.6 0.0
26/08:00pm 13.4 10.5 6.5 63 3.3 ENE 11 13 6 7 1017.6 1017.6 0.0
26/07:30pm 13.7 10.3 6.1 60 3.6 NE 13 15 7 8 1017.8 1017.8 0.0
26/07:00pm 14.7 12.1 6.3 57 4.0 NNE 9 11 5 6 1017.9 1017.9 0.0
26/06:30pm 15.3 12.3 5.8 53 4.5 NNW 11 13 6 7 1017.9 1017.9 0.0
26/06:00pm 15.8 12.8 6.0 52 4.7 NW 11 13 6 7 1017.7 1017.7 0.0
26/05:30pm 16.7 13.2 5.6 48 5.3 NW 13 15 7 8 1017.5 1017.5 0.0
26/05:00pm 19.0 15.2 5.8 42 6.5 WNW 15 19 8 10 1017.6 1017.6 0.0
26/04:30pm 20.5 15.8 5.3 37 7.5 WNW 19 22 10 12 1017.5 1017.5 0.0
26/04:00pm 21.6 16.8 4.7 33 8.3 NW 19 24 10 13 1017.5 1017.5 0.0
26/03:30pm 22.0 16.6 4.6 32 8.5 NW 22 32 12 17 1017.5 1017.5 0.0
26/03:00pm 22.1 16.5 5.5 34 8.3 WNW 24 30 13 16 1017.5 1017.5 0.0
26/02:30pm 21.4 18.9 8.0 42 7.0 WSW 11 19 6 10 1017.9 1017.9 0.0
26/02:00pm 20.7 16.9 9.0 47 6.2 W 19 24 10 13 1018.3 1018.3 0.0
26/01:30pm 21.9 17.6 7.0 38 7.6 NW 19 26 10 14 1018.7 1018.7 0.0
26/01:00pm 21.4 17.5 6.9 39 7.4 NNW 17 30 9 16 1019.1 1019.1 0.0
26/12:30pm 20.1 18.5 10.2 53 5.3 NNE 9 15 5 8 1019.8 1019.8 0.0
26/12:00pm 19.2 16.8 10.2 56 4.8 NNE 13 19 7 10 1020.6 1020.6 0.0
26/11:30am 18.7 17.3 10.8 60 4.3 N 9 13 5 7 1021.1 1021.1 0.0
26/11:00am 18.2 16.8 10.8 62 4.0 NNE 9 13 5 7 1021.7 1021.7 0.0
26/10:30am 17.5 16.1 10.9 65 3.5 NE 9 13 5 7 1022.1 1022.1 0.0
26/10:00am 16.3 14.8 10.6 69 3.0 NE 9 13 5 7 1022.5 1022.5 0.0
26/09:30am 15.5 13.7 10.9 74 2.4 NE 11 13 6 7 1022.7 1022.7 0.0
26/09:25am 15.5 13.8 11.1 75 2.4 NE 11 13 6 7 1022.7 1022.7 0.0
26/09:00am 14.3 13.5 11.1 81 1.7 NE 6 9 3 5 1022.9 1022.9 0.0
26/08:42am 13.0 11.9 10.5 85 1.3 NE 7 9 4 5 1022.9 1022.9 0.0
26/08:30am 12.4 11.2 10.3 87 1.1 ENE 7 11 4 6 1022.8 1022.8 0.0
26/08:23am 12.1 10.9 10.3 89 0.9 NE 7 9 4 5 1022.7 1022.7 0.0
26/08:00am 10.6 9.2 9.0 90 0.8 NE 6 7 3 4 1022.7 1022.7 0.0
26/07:30am 9.5 7.3 7.8 89 0.8 NE 9 9 5 5 1022.2 1022.2 0.0
26/07:00am 10.6 8.9 8.5 87 1.0 E 7 9 4 5 1022.0 1022.0 0.0
26/06:30am 11.8 10.5 9.2 84 1.3 ENE 6 7 3 4 1022.1 1022.1 0.0
26/06:00am 11.6 10.1 9.3 86 1.2 NE 7 9 4 5 1021.9 1021.9 0.0
26/05:48am 11.3 9.7 8.9 85 1.2 NNE 7 9 4 5 1021.8 1021.8 0.0
26/05:30am 11.6 9.3 9.0 84 1.3 NE 11 13 6 7 1021.7 1021.7 0.0
26/05:00am 12.2 10.0 9.4 83 1.4 NE 11 13 6 7 1021.7 1021.7 0.0
26/04:30am 12.5 10.5 10.0 85 1.3 NE 11 13 6 7 1021.6 1021.6 0.0
26/04:00am 11.6 9.8 9.3 86 1.2 NE 9 11 5 6 1021.7 1021.7 0.0
26/03:57am 11.6 9.8 9.3 86 1.2 NE 9 9 5 5 1021.7 1021.7 0.0
26/03:30am 12.0 10.3 9.7 86 1.2 NNE 9 11 5 6 1021.7 1021.7 0.0
26/03:00am 11.9 9.7 9.5 85 1.2 NNE 11 11 6 6 1021.7 1021.7 0.0
26/02:57am 12.0 9.9 9.6 85 1.2 NE 11 11 6 6 1021.7 1021.7 0.0
26/02:30am 12.5 10.5 10.2 86 1.2 NE 11 13 6 7 1021.8 1021.8 0.0
26/02:08am 12.0 9.9 9.9 87 1.1 ENE 11 13 6 7 1021.8 1021.8 0.0
26/02:00am 11.2 9.3 8.9 86 1.1 NE 9 13 5 7 1021.8 1021.8 0.0
26/01:30am 11.8 9.6 9.4 85 1.2 NE 11 13 6 7 1021.9 1021.9 0.0
26/01:00am 12.2 10.5 9.9 86 1.2 NNE 9 11 5 6 1022.1 1022.1 0.0
26/12:55am 12.1 10.4 9.8 86 1.2 NNE 9 11 5 6 1022.1 1022.1 0.0
26/12:51am 12.1 10.4 10.0 87 1.1 NNE 9 11 5 6 1022.2 1022.2 0.0
26/12:38am 11.9 10.6 9.8 87 1.1 NNE 7 9 4 5 1022.3 1022.3 0.0
26/12:30am 11.9 10.6 9.8 87 1.1 NNE 7 11 4 6 1022.3 1022.3 0.0
26/12:00am 11.2 9.3 9.1 87 1.0 NE 9 9 5 5 1022.4 1022.4 0.0
 
Date/Time
CST
Temp
°C
App
Temp
°C
Dew
Point
°C
Rel
Hum
%
Delta-T
°C
Wind Press
QNH
hPa
Press
MSL
hPa
Rain since
9am
mm
Dir  Spd
km/h
Gust
km/h
Spd
kts
Gust
kts
25/11:30pm 11.2 9.3 9.1 87 1.0 NE 9 11 5 6 1022.3 1022.3 0.0
25/11:00pm 10.6 8.1 8.4 86 1.1 NE 11 13 6 7 1022.2 1022.2 0.0
25/10:30pm 11.1 9.1 8.8 86 1.1 NE 9 11 5 6 1022.3 1022.3 0.0
25/10:00pm 11.5 10.0 9.1 85 1.2 NE 7 7 4 4 1022.4 1022.4 0.0
25/09:30pm 11.7 9.4 9.1 84 1.3 ENE 11 15 6 8 1022.3 1022.3 0.0
25/09:00pm 11.7 9.8 9.1 84 1.3 NE 9 11 5 6 1022.1 1022.1 0.0
25/08:30pm 11.7 10.2 9.1 84 1.3 NE 7 9 4 5 1022.0 1022.0 0.0
25/08:00pm 12.0 10.1 9.2 83 1.4 NE 9 13 5 7 1022.0 1022.0 0.0
25/07:30pm 12.9 11.1 9.5 80 1.7 ENE 9 13 5 7 1022.0 1022.0 0.0
25/07:00pm 13.1 13.0 9.5 79 1.8 CALM 0 0 0 0 1022.0 1022.0 0.0
25/06:30pm 13.1 12.9 9.2 77 2.0 CALM 0 0 0 0 1021.8 1021.8 0.0
25/06:00pm 15.3 14.9 9.9 70 2.8 WNW 2 6 1 3 1021.4 1021.4 0.0
25/05:30pm 15.8 14.7 9.9 68 3.1 WNW 6 7 3 4 1021.1 1021.1 0.0
25/05:00pm 17.1 15.4 9.8 62 3.8 W 9 11 5 6 1021.0 1021.0 0.0
25/04:30pm 18.4 15.9 9.7 57 4.6 W 13 19 7 10 1020.9 1020.9 0.0
25/04:00pm 18.8 14.9 9.6 55 4.9 W 20 24 11 13 1020.9 1020.9 0.0
25/03:30pm 19.4 15.4 9.0 51 5.4 W 20 26 11 14 1020.7 1020.7 0.0
25/03:00pm 19.7 15.8 9.3 51 5.5 W 20 26 11 14 1020.6 1020.6 0.0
25/02:30pm 19.8 15.7 10.0 53 5.2 WNW 22 28 12 15 1020.7 1020.7 0.0
25/02:00pm 19.9 14.6 9.8 52 5.4 W 28 33 15 18 1021.0 1021.0 0.0
25/01:30pm 19.9 15.0 10.0 53 5.3 W 26 32 14 17 1021.2 1021.2 0.0
25/01:00pm 19.7 15.6 10.1 54 5.2 WNW 22 30 12 16 1021.5 1021.5 0.0
25/12:30pm 19.6 14.3 8.6 49 5.7 WNW 26 32 14 17 1021.8 1021.8 0.0
25/12:00pm 19.3 14.8 8.6 50 5.5 WNW 22 33 12 18 1022.1 1022.1 0.0
25/11:30am 18.8 15.7 10.4 58 4.5 WNW 17 26 9 14 1022.5 1022.5 0.0
25/11:00am 17.8 15.8 11.4 66 3.5 NNW 13 17 7 9 1022.8 1022.8 0.0
25/10:30am 16.5 15.0 11.9 74 2.5 N 11 17 6 9 1022.9 1022.9 0.0
25/10:00am 16.0 14.2 12.2 78 2.1 NNE 13 28 7 15 1022.9 1022.9 0.0
25/09:30am 14.4 12.3 11.0 80 1.8 NNE 13 17 7 9 1022.9 1022.9 0.0
25/09:00am 13.0 10.3 10.4 84 1.3 NNE 15 19 8 10 1022.8 1022.8 0.0
25/08:30am 12.4 9.2 10.0 85 1.2 N 17 20 9 11 1022.5 1022.5 0.0
25/08:00am 10.4 8.5 9.0 91 0.7 NNE 9 13 5 7 1022.5 1022.5 0.0
25/07:30am 10.2 9.1 8.6 90 0.8 NNE 4 6 2 3 1022.5 1022.5 0.0
25/07:00am 9.8 7.7 8.2 90 0.8 NE 9 11 5 6 1022.0 1022.0 0.0

Latest Capital City Observations: Canberra | Sydney | Melbourne | Brisbane | Adelaide | Perth | Hobart | Darwin

Other Formats:

Comma delimited format used in spreadsheet applications
http://www.bom.gov.au/fwo/IDS60901/IDS60901.95676.axf

JavaScript Object Notation format (JSON) in row-major order
http://www.bom.gov.au/fwo/IDS60901/IDS60901.95676.json